Time;durP1;ratioP1;P1;durP2;ratioP2;P2;SDS_P1;SDS_P2;PMS_P1;PMS_P2;Temp;Humidity;BMP_temperature;BMP_pressure;BME280_temperature;BME280_humidity;BME280_pressure;Samples;Min_cycle;Max_cycle;Signal;HPM_P1;HPM_P2
2021/08/05 00:01:49;;;;;;;3.75;1.20;;;;;;;;;;4921335;29;20146;-73
2021/08/05 00:04:15;;;;;;;2.03;1.20;;;;;;;;;;4921267;29;20063;-73
2021/08/05 00:06:42;;;;;;;1.77;1.20;;;;;;;;;;4921211;29;20420;-72
2021/08/05 00:09:08;;;;;;;2.58;1.50;;;;;;;;;;4924607;29;20059;-73
2021/08/05 00:11:36;;;;;;;2.15;1.40;;;;;;;;;;4923489;29;20543;-73
2021/08/05 00:14:02;;;;;;;2.47;1.23;;;;;;;;;;4893626;29;20071;-73
2021/08/05 00:16:29;;;;;;;1.92;1.08;;;;;;;;;;4922499;29;20060;-72
2021/08/05 00:18:55;;;;;;;2.00;1.40;;;;;;;;;;4923505;29;20543;-73
2021/08/05 00:21:22;;;;;;;2.15;1.30;;;;;;;;;;4914143;29;20072;-72
2021/08/05 00:23:48;;;;;;;2.15;1.27;;;;;;;;;;4913983;29;20047;-72
2021/08/05 00:26:15;;;;;;;2.72;1.30;;;;;;;;;;4922328;29;20059;-73
2021/08/05 00:28:41;;;;;;;2.22;1.42;;;;;;;;;;4918232;29;20087;-73
2021/08/05 00:31:08;;;;;;;1.65;1.10;;;;;;;;;;4909311;29;20064;-72
2021/08/05 00:33:35;;;;;;;2.78;1.23;;;;;;;;;;4921727;29;20032;-73
2021/08/05 00:36:01;;;;;;;1.80;1.20;;;;;;;;;;4924138;29;20032;-73
2021/08/05 00:38:28;;;;;;;1.83;1.13;;;;;;;;;;4925721;29;20089;-73
2021/08/05 00:40:54;;;;;;;1.60;1.20;;;;;;;;;;4913699;29;20531;-72
2021/08/05 00:43:21;;;;;;;2.17;1.30;;;;;;;;;;4913880;29;20067;-73
2021/08/05 00:45:47;;;;;;;2.05;1.20;;;;;;;;;;4911413;29;20079;-73
2021/08/05 00:48:14;;;;;;;2.58;1.30;;;;;;;;;;4912290;29;20063;-73
2021/08/05 00:50:40;;;;;;;2.45;1.30;;;;;;;;;;4924220;29;20524;-72
2021/08/05 00:53:07;;;;;;;1.60;1.00;;;;;;;;;;4919830;29;20191;-73
2021/08/05 00:55:34;;;;;;;2.28;1.20;;;;;;;;;;4920621;29;20151;-71
2021/08/05 00:58:00;;;;;;;2.17;1.40;;;;;;;;;;4922494;29;20058;-71
2021/08/05 01:00:27;;;;;;;1.38;1.10;;;;;;;;;;4922831;29;20060;-71
2021/08/05 01:03:13;;;;;;;2.45;1.48;;;;;;;;;;4923139;29;20433;-71
2021/08/05 01:05:43;;;;;;;2.70;1.25;;;;;;;;;;4928143;29;20104;-72
2021/08/05 01:08:11;;;;;;;1.95;1.10;;;;;;;;;;4924479;29;20059;-71
2021/08/05 01:10:44;;;;;;;1.67;1.20;;;;;;;;;;4920298;29;20067;-72
2021/08/05 01:13:10;;;;;;;1.73;1.17;;;;;;;;;;4926214;29;20098;-72
2021/08/05 01:15:37;;;;;;;2.70;1.30;;;;;;;;;;4926090;29;20056;-71
2021/08/05 01:18:08;;;;;;;1.70;1.15;;;;;;;;;;4922960;29;20079;-74
2021/08/05 01:20:34;;;;;;;1.80;1.20;;;;;;;;;;4926469;29;20095;-72
2021/08/05 01:23:20;;;;;;;2.38;1.30;;;;;;;;;;4923138;29;20071;-72
2021/08/05 01:25:48;;;;;;;1.73;1.02;;;;;;;;;;4919119;29;20134;-72
2021/08/05 01:28:15;;;;;;;1.90;1.23;;;;;;;;;;4903929;29;20064;-72
2021/08/05 01:30:42;;;;;;;2.05;1.30;;;;;;;;;;4923300;29;20087;-72
2021/08/05 01:33:09;;;;;;;1.77;1.20;;;;;;;;;;4929865;29;20078;-72
2021/08/05 01:35:36;;;;;;;1.50;1.05;;;;;;;;;;4907613;29;20134;-71
2021/08/05 01:38:02;;;;;;;1.80;1.13;;;;;;;;;;4923104;29;20067;-71
2021/08/05 01:40:31;;;;;;;1.80;1.10;;;;;;;;;;4923796;29;20127;-72
2021/08/05 01:42:58;;;;;;;1.95;1.00;;;;;;;;;;4914820;29;20059;-72
2021/08/05 01:45:25;;;;;;;3.00;1.10;;;;;;;;;;4917311;29;20059;-71
2021/08/05 01:47:52;;;;;;;1.73;1.15;;;;;;;;;;4927949;29;20059;-71
2021/08/05 01:50:18;;;;;;;1.80;1.10;;;;;;;;;;4920732;29;20240;-71
2021/08/05 01:52:45;;;;;;;1.70;1.10;;;;;;;;;;4925569;29;20051;-72
2021/08/05 01:55:12;;;;;;;2.17;1.27;;;;;;;;;;4915363;29;20060;-72
2021/08/05 01:57:39;;;;;;;1.98;0.95;;;;;;;;;;4926178;29;20059;-72
2021/08/05 02:00:06;;;;;;;1.35;1.00;;;;;;;;;;4922355;29;20056;-72
2021/08/05 02:02:33;;;;;;;1.65;1.10;;;;;;;;;;4917659;29;20052;-74
2021/08/05 02:05:03;;;;;;;2.55;1.48;;;;;;;;;;4924234;29;20543;-73
2021/08/05 02:07:32;;;;;;;2.17;0.90;;;;;;;;;;4917419;29;20047;-72
2021/08/05 02:10:10;;;;;;;1.50;1.05;;;;;;;;;;4926482;29;20067;-72
2021/08/05 02:12:40;;;;;;;1.65;1.00;;;;;;;;;;4924377;29;20067;-72
2021/08/05 02:15:07;;;;;;;2.03;1.20;;;;;;;;;;4923730;29;20141;-72
2021/08/05 02:17:35;;;;;;;1.65;1.02;;;;;;;;;;4916448;29;20063;-72
2021/08/05 02:20:02;;;;;;;1.58;1.10;;;;;;;;;;4901057;29;20072;-72
2021/08/05 02:22:29;;;;;;;1.60;1.10;;;;;;;;;;4890813;29;20140;-73
2021/08/05 02:24:55;;;;;;;2.20;1.08;;;;;;;;;;4906259;29;20453;-72
2021/08/05 02:27:22;;;;;;;2.00;1.05;;;;;;;;;;4903282;29;20033;-72
2021/08/05 02:29:49;;;;;;;2.20;0.80;;;;;;;;;;4905850;29;21253;-72
2021/08/05 02:32:15;;;;;;;2.38;0.93;;;;;;;;;;4907083;29;20627;-72
2021/08/05 02:34:43;;;;;;;2.03;1.00;;;;;;;;;;4898040;29;20091;-73
2021/08/05 02:37:09;;;;;;;1.45;1.10;;;;;;;;;;4903911;29;20069;-72
2021/08/05 02:39:36;;;;;;;1.95;1.33;;;;;;;;;;4902229;29;20043;-72
2021/08/05 02:42:02;;;;;;;2.50;1.05;;;;;;;;;;4899376;29;20044;-72
2021/08/05 02:44:30;;;;;;;1.90;1.10;;;;;;;;;;4901276;29;20067;-72
2021/08/05 02:46:57;;;;;;;1.98;1.02;;;;;;;;;;4906732;29;20594;-71
2021/08/05 02:49:23;;;;;;;1.60;1.00;;;;;;;;;;4905807;29;20587;-73
2021/08/05 02:51:53;;;;;;;1.90;1.00;;;;;;;;;;4901963;29;20654;-72
2021/08/05 02:54:19;;;;;;;3.13;1.00;;;;;;;;;;4907391;29;20579;-71
2021/08/05 02:56:46;;;;;;;2.22;1.10;;;;;;;;;;4899894;29;20132;-71
2021/08/05 02:59:12;;;;;;;1.58;0.88;;;;;;;;;;4913390;29;20067;-71
2021/08/05 03:01:40;;;;;;;1.52;1.02;;;;;;;;;;4901975;29;20041;-72
2021/08/05 03:04:07;;;;;;;1.90;1.10;;;;;;;;;;4906479;29;21510;-72
2021/08/05 03:06:34;;;;;;;1.80;1.15;;;;;;;;;;4902982;29;20087;-72
2021/08/05 03:09:00;;;;;;;1.35;0.90;;;;;;;;;;4906183;29;20072;-71
2021/08/05 03:11:26;;;;;;;2.03;0.93;;;;;;;;;;4905111;29;20571;-72
2021/08/05 03:13:53;;;;;;;2.10;1.13;;;;;;;;;;4903874;29;20076;-72
2021/08/05 03:16:19;;;;;;;1.60;1.00;;;;;;;;;;4899008;29;20064;-73
2021/08/05 03:18:45;;;;;;;1.65;0.95;;;;;;;;;;4907679;29;20058;-73
2021/08/05 03:21:12;;;;;;;1.83;1.10;;;;;;;;;;4915383;29;20079;-73
2021/08/05 03:23:39;;;;;;;1.52;0.90;;;;;;;;;;4913198;29;20229;-73
2021/08/05 03:26:06;;;;;;;1.77;1.00;;;;;;;;;;4919246;29;20095;-73
2021/08/05 03:28:33;;;;;;;1.65;1.17;;;;;;;;;;4916189;29;20456;-72
2021/08/05 03:30:59;;;;;;;1.63;1.10;;;;;;;;;;4908002;29;20156;-72
2021/08/05 03:33:26;;;;;;;1.30;0.93;;;;;;;;;;4918674;29;20063;-72
2021/08/05 03:35:52;;;;;;;1.50;1.00;;;;;;;;;;4915056;29;20563;-72
2021/08/05 03:38:19;;;;;;;1.58;1.02;;;;;;;;;;4914912;29;20043;-72
2021/08/05 03:40:45;;;;;;;2.10;1.10;;;;;;;;;;4921081;29;20047;-73
2021/08/05 03:43:12;;;;;;;1.50;1.00;;;;;;;;;;4917345;29;20074;-73
2021/08/05 03:45:38;;;;;;;1.60;0.95;;;;;;;;;;4918269;29;20086;-73
2021/08/05 03:48:04;;;;;;;1.55;0.82;;;;;;;;;;4926220;29;20059;-73
2021/08/05 03:50:31;;;;;;;2.17;1.33;;;;;;;;;;4908155;29;20067;-73
2021/08/05 03:52:57;;;;;;;1.80;1.10;;;;;;;;;;4914715;29;20044;-73
2021/08/05 03:55:24;;;;;;;2.22;1.15;;;;;;;;;;4908643;29;20523;-74
2021/08/05 03:57:50;;;;;;;1.92;1.10;;;;;;;;;;4909610;29;20126;-72
2021/08/05 04:00:18;;;;;;;1.52;0.90;;;;;;;;;;4919864;29;20091;-72
2021/08/05 04:02:44;;;;;;;1.50;1.00;;;;;;;;;;4918148;29;20496;-73
2021/08/05 04:05:11;;;;;;;1.70;1.00;;;;;;;;;;4925585;29;20198;-72
2021/08/05 04:07:38;;;;;;;1.42;1.05;;;;;;;;;;4925129;29;20064;-72
2021/08/05 04:10:04;;;;;;;1.40;0.95;;;;;;;;;;4925618;29;20055;-73
2021/08/05 04:12:31;;;;;;;1.70;1.00;;;;;;;;;;4920025;29;20067;-73
2021/08/05 04:14:57;;;;;;;1.48;0.90;;;;;;;;;;4923237;29;20075;-72
2021/08/05 04:17:24;;;;;;;2.53;1.25;;;;;;;;;;4929363;29;20043;-73
2021/08/05 04:19:50;;;;;;;1.80;1.10;;;;;;;;;;4922177;29;20063;-73
2021/08/05 04:22:16;;;;;;;4.78;1.27;;;;;;;;;;4917148;29;20074;-73
2021/08/05 04:24:43;;;;;;;1.45;0.90;;;;;;;;;;4926325;29;20063;-72
2021/08/05 04:27:09;;;;;;;1.85;1.05;;;;;;;;;;4925751;29;20090;-73
2021/08/05 04:29:36;;;;;;;2.22;1.00;;;;;;;;;;4925428;29;20060;-73
2021/08/05 04:32:02;;;;;;;1.30;0.90;;;;;;;;;;4927754;29;20114;-72
2021/08/05 04:34:29;;;;;;;2.40;1.00;;;;;;;;;;4924299;29;20094;-74
2021/08/05 04:36:56;;;;;;;1.60;1.20;;;;;;;;;;4916034;29;20074;-73
2021/08/05 04:39:22;;;;;;;2.85;1.20;;;;;;;;;;4923047;29;20086;-72
2021/08/05 04:41:48;;;;;;;1.77;1.10;;;;;;;;;;4920501;29;20148;-72
2021/08/05 04:44:15;;;;;;;1.52;0.85;;;;;;;;;;4918873;29;20078;-73
2021/08/05 04:46:41;;;;;;;1.90;1.10;;;;;;;;;;4922566;29;20056;-73
2021/08/05 04:49:07;;;;;;;8.70;1.33;;;;;;;;;;4919568;29;20585;-73
2021/08/05 04:51:34;;;;;;;1.42;1.00;;;;;;;;;;4912820;29;20071;-73
2021/08/05 04:54:02;;;;;;;2.67;1.42;;;;;;;;;;4921710;29;20126;-73
2021/08/05 04:56:32;;;;;;;2.15;1.23;;;;;;;;;;4921807;29;20064;-72
2021/08/05 04:58:59;;;;;;;1.80;1.30;;;;;;;;;;4921065;29;20412;-73
2021/08/05 05:01:25;;;;;;;2.20;1.25;;;;;;;;;;4914845;29;20504;-73
2021/08/05 05:03:52;;;;;;;2.15;1.30;;;;;;;;;;4915776;29;20060;-74
2021/08/05 05:06:18;;;;;;;2.10;1.40;;;;;;;;;;4921785;29;20060;-73
2021/08/05 05:08:45;;;;;;;2.47;1.50;;;;;;;;;;4921624;29;20051;-73
2021/08/05 05:11:11;;;;;;;2.13;1.50;;;;;;;;;;4918328;29;20038;-73
2021/08/05 05:13:37;;;;;;;2.08;1.50;;;;;;;;;;4921155;29;20480;-73
2021/08/05 05:16:04;;;;;;;2.15;1.30;;;;;;;;;;4921003;29;20063;-73
2021/08/05 05:18:30;;;;;;;2.28;1.40;;;;;;;;;;4918811;29;20067;-73
2021/08/05 05:20:57;;;;;;;2.55;1.40;;;;;;;;;;4921190;29;20067;-72
2021/08/05 05:23:23;;;;;;;2.28;1.30;;;;;;;;;;4921042;29;20087;-73
2021/08/05 05:25:50;;;;;;;2.10;1.20;;;;;;;;;;4919882;29;20500;-73
2021/08/05 05:28:16;;;;;;;2.75;1.60;;;;;;;;;;4923842;29;20135;-73
2021/08/05 05:30:43;;;;;;;2.70;1.40;;;;;;;;;;4917330;29;20620;-72
2021/08/05 05:33:09;;;;;;;1.90;1.30;;;;;;;;;;4920770;29;20083;-73
2021/08/05 05:35:36;;;;;;;3.13;2.17;;;;;;;;;;4916966;29;20079;-72
2021/08/05 05:38:02;;;;;;;2.40;1.33;;;;;;;;;;4919190;29;20062;-72
2021/08/05 05:40:29;;;;;;;3.33;1.40;;;;;;;;;;4927313;29;20070;-72
2021/08/05 05:42:55;;;;;;;2.42;1.30;;;;;;;;;;4913960;29;20070;-72
2021/08/05 05:45:22;;;;;;;2.10;1.48;;;;;;;;;;4920869;29;20079;-73
2021/08/05 05:47:49;;;;;;;2.85;1.80;;;;;;;;;;4921855;29;20390;-72
2021/08/05 05:50:17;;;;;;;1.92;1.27;;;;;;;;;;4921949;29;20039;-73
2021/08/05 05:52:43;;;;;;;3.60;1.60;;;;;;;;;;4917259;29;20099;-73
2021/08/05 05:55:10;;;;;;;1.92;1.50;;;;;;;;;;4923588;29;20067;-72
2021/08/05 05:57:37;;;;;;;3.05;1.63;;;;;;;;;;4911163;29;20059;-72
2021/08/05 06:00:04;;;;;;;2.65;1.23;;;;;;;;;;4914431;29;20402;-72
2021/08/05 06:02:30;;;;;;;2.30;1.50;;;;;;;;;;4916622;29;20598;-74
2021/08/05 06:04:57;;;;;;;2.25;1.50;;;;;;;;;;4921327;29;20067;-73
2021/08/05 06:07:23;;;;;;;3.22;1.60;;;;;;;;;;4922021;29;20064;-73
2021/08/05 06:09:49;;;;;;;1.90;1.40;;;;;;;;;;4917782;29;20676;-73
2021/08/05 06:12:16;;;;;;;2.40;1.63;;;;;;;;;;4914665;29;20072;-73
2021/08/05 06:14:44;;;;;;;2.83;1.33;;;;;;;;;;4909993;29;20132;-73
2021/08/05 06:17:10;;;;;;;1.75;1.33;;;;;;;;;;4919519;29;20560;-73
2021/08/05 06:19:36;;;;;;;2.10;1.25;;;;;;;;;;4919949;29;20094;-73
2021/08/05 06:22:03;;;;;;;2.00;1.40;;;;;;;;;;4919243;29;20451;-72
2021/08/05 06:24:29;;;;;;;3.10;1.77;;;;;;;;;;4915360;29;20122;-73
2021/08/05 06:26:56;;;;;;;2.47;1.38;;;;;;;;;;4918911;29;20068;-73
2021/08/05 06:29:28;;;;;;;4.13;1.77;;;;;;;;;;4923544;29;20063;-72
2021/08/05 06:31:55;;;;;;;2.53;1.50;;;;;;;;;;4924346;29;20110;-72
2021/08/05 06:34:21;;;;;;;2.35;1.60;;;;;;;;;;4921120;29;20130;-72
2021/08/05 06:36:47;;;;;;;3.55;1.40;;;;;;;;;;4922193;29;20071;-72
2021/08/05 06:39:18;;;;;;;2.35;1.50;;;;;;;;;;4919761;29;20413;-76
2021/08/05 06:41:45;;;;;;;3.78;1.25;;;;;;;;;;4893219;29;20047;-72
2021/08/05 06:44:11;;;;;;;1.85;1.30;;;;;;;;;;4915676;29;20440;-73
2021/08/05 06:46:38;;;;;;;3.17;1.50;;;;;;;;;;4920005;29;20063;-73
2021/08/05 06:49:04;;;;;;;2.10;1.60;;;;;;;;;;4924951;29;20103;-73
2021/08/05 06:51:30;;;;;;;5.78;1.52;;;;;;;;;;4917957;29;20055;-73
2021/08/05 06:53:57;;;;;;;3.30;1.50;;;;;;;;;;4922682;29;20078;-73
2021/08/05 06:56:25;;;;;;;3.95;1.70;;;;;;;;;;4923654;29;20071;-73
2021/08/05 06:58:52;;;;;;;4.40;1.58;;;;;;;;;;4922743;29;21217;-73
2021/08/05 07:01:18;;;;;;;6.75;1.90;;;;;;;;;;4920660;29;20071;-72
2021/08/05 07:03:44;;;;;;;2.85;1.40;;;;;;;;;;4921450;29;20083;-72
2021/08/05 07:06:11;;;;;;;3.35;1.30;;;;;;;;;;4923402;29;20082;-72
2021/08/05 07:08:37;;;;;;;1.55;1.20;;;;;;;;;;4912245;29;20051;-73
2021/08/05 07:11:03;;;;;;;2.30;1.17;;;;;;;;;;4920430;29;20523;-71
2021/08/05 07:13:30;;;;;;;2.25;1.35;;;;;;;;;;4921929;29;20060;-72
2021/08/05 07:15:56;;;;;;;2.17;1.40;;;;;;;;;;4915148;29;20508;-71
2021/08/05 07:18:23;;;;;;;2.25;1.50;;;;;;;;;;4917750;29;20112;-72
2021/08/05 07:20:49;;;;;;;3.85;1.40;;;;;;;;;;4918163;29;20315;-72
2021/08/05 07:23:16;;;;;;;3.38;1.55;;;;;;;;;;4908814;29;20550;-71
2021/08/05 07:25:42;;;;;;;3.15;1.60;;;;;;;;;;4925024;29;20349;-72
2021/08/05 07:28:09;;;;;;;2.30;1.33;;;;;;;;;;4920536;29;20416;-73
2021/08/05 07:30:35;;;;;;;2.30;1.50;;;;;;;;;;4918718;29;20064;-74
2021/08/05 07:33:02;;;;;;;3.88;1.50;;;;;;;;;;4920496;29;20052;-73
2021/08/05 07:35:28;;;;;;;2.22;1.30;;;;;;;;;;4920153;29;20075;-74
2021/08/05 07:37:54;;;;;;;3.78;1.20;;;;;;;;;;4912743;29;20106;-74
2021/08/05 07:40:21;;;;;;;3.17;1.35;;;;;;;;;;4920303;29;20063;-74
2021/08/05 07:42:47;;;;;;;2.33;1.17;;;;;;;;;;4919658;29;20059;-73
2021/08/05 07:45:14;;;;;;;3.35;1.40;;;;;;;;;;4919824;29;20449;-74
2021/08/05 07:47:40;;;;;;;4.97;1.95;;;;;;;;;;4915792;29;20063;-74
2021/08/05 07:50:10;;;;;;;4.95;1.63;;;;;;;;;;4914458;29;20067;-74
2021/08/05 07:52:36;;;;;;;3.00;1.77;;;;;;;;;;4912002;29;20055;-75
2021/08/05 07:55:05;;;;;;;3.70;1.70;;;;;;;;;;4916785;29;20072;-74
2021/08/05 07:57:32;;;;;;;3.28;1.58;;;;;;;;;;4913935;29;20656;-74
2021/08/05 08:00:00;;;;;;;2.97;1.48;;;;;;;;;;4916565;29;20063;-74
2021/08/05 08:02:26;;;;;;;3.10;1.77;;;;;;;;;;4916451;29;20123;-75
2021/08/05 08:04:53;;;;;;;3.78;1.95;;;;;;;;;;4913462;29;20072;-75
2021/08/05 08:07:20;;;;;;;4.05;1.58;;;;;;;;;;4912189;29;20072;-76
2021/08/05 08:09:46;;;;;;;3.90;1.75;;;;;;;;;;4913029;29;20095;-75
2021/08/05 08:12:12;;;;;;;3.47;1.70;;;;;;;;;;4914044;29;20499;-74
2021/08/05 08:14:39;;;;;;;3.28;1.48;;;;;;;;;;4916419;29;20080;-75
2021/08/05 08:17:05;;;;;;;3.13;1.65;;;;;;;;;;4915112;29;20422;-73
2021/08/05 08:19:32;;;;;;;3.90;1.95;;;;;;;;;;4919788;29;20086;-74
2021/08/05 08:22:01;;;;;;;6.15;2.15;;;;;;;;;;4918688;29;20745;-73
2021/08/05 08:24:28;;;;;;;3.58;1.48;;;;;;;;;;4912881;29;20082;-73
2021/08/05 08:26:54;;;;;;;3.72;1.83;;;;;;;;;;4910368;29;20039;-74
2021/08/05 08:29:21;;;;;;;4.05;1.73;;;;;;;;;;4923510;29;20071;-75
2021/08/05 08:31:48;;;;;;;4.80;2.08;;;;;;;;;;4910499;29;20088;-74
2021/08/05 08:34:15;;;;;;;3.03;1.50;;;;;;;;;;4900699;29;20059;-75
2021/08/05 08:36:43;;;;;;;4.65;1.80;;;;;;;;;;4912124;29;20056;-74
2021/08/05 08:39:10;;;;;;;3.72;1.83;;;;;;;;;;4911111;29;21309;-74
2021/08/05 08:41:38;;;;;;;3.22;1.70;;;;;;;;;;4911939;29;20082;-74
2021/08/05 08:44:04;;;;;;;7.63;1.88;;;;;;;;;;4912883;29;20131;-73
2021/08/05 08:46:36;;;;;;;3.03;1.48;;;;;;;;;;4915027;29;20511;-75
2021/08/05 08:49:03;;;;;;;4.05;1.45;;;;;;;;;;4916530;29;20074;-73
2021/08/05 08:51:34;;;;;;;3.38;1.60;;;;;;;;;;4905388;29;20087;-73
2021/08/05 08:54:07;;;;;;;3.17;1.80;;;;;;;;;;4914529;29;20518;-73
2021/08/05 08:56:34;;;;;;;3.78;1.40;;;;;;;;;;4913916;29;20119;-73
2021/08/05 08:59:01;;;;;;;4.45;1.70;;;;;;;;;;4916512;29;20099;-74
2021/08/05 09:01:27;;;;;;;4.13;1.80;;;;;;;;;;4918713;29;20083;-75
2021/08/05 09:03:54;;;;;;;5.47;1.80;;;;;;;;;;4925085;29;20056;-74
2021/08/05 09:06:20;;;;;;;4.28;1.63;;;;;;;;;;4926486;29;20595;-74
2021/08/05 09:08:49;;;;;;;3.25;1.67;;;;;;;;;;4912531;29;20815;-75
2021/08/05 09:11:15;;;;;;;4.45;2.10;;;;;;;;;;4926803;29;20507;-75
2021/08/05 09:13:42;;;;;;;2.78;1.60;;;;;;;;;;4915839;29;20087;-76
2021/08/05 09:16:24;;;;;;;5.13;1.63;;;;;;;;;;4921123;29;20130;-76
2021/08/05 09:18:51;;;;;;;4.10;1.90;;;;;;;;;;4923766;29;20227;-76
2021/08/05 09:21:22;;;;;;;5.07;1.70;;;;;;;;;;4927587;29;20059;-75
2021/08/05 09:23:49;;;;;;;2.83;1.80;;;;;;;;;;4925614;29;20105;-75
2021/08/05 09:26:25;;;;;;;2.65;1.70;;;;;;;;;;4925113;29;20056;-77
2021/08/05 09:29:02;;;;;;;3.80;1.98;;;;;;;;;;4930505;29;20119;-77
2021/08/05 09:31:29;;;;;;;3.17;2.10;;;;;;;;;;4919100;29;20454;-76
2021/08/05 09:34:06;;;;;;;5.18;2.30;;;;;;;;;;4926522;29;20035;-75
2021/08/05 09:36:33;;;;;;;4.88;2.00;;;;;;;;;;4930154;29;20106;-75
2021/08/05 09:38:59;;;;;;;2.35;1.70;;;;;;;;;;4922634;29;20511;-74
2021/08/05 09:41:26;;;;;;;3.10;1.98;;;;;;;;;;4918411;29;20590;-75
2021/08/05 09:44:00;;;;;;;3.85;1.95;;;;;;;;;;4918207;29;20083;-76
2021/08/05 09:46:31;;;;;;;3.15;1.75;;;;;;;;;;4918964;29;20067;-74
2021/08/05 09:48:57;;;;;;;3.03;1.77;;;;;;;;;;4920843;29;20060;-76
2021/08/05 09:51:24;;;;;;;3.53;2.00;;;;;;;;;;4926920;29;20130;-77
2021/08/05 09:53:53;;;;;;;4.68;2.03;;;;;;;;;;4901507;29;20476;-77
2021/08/05 09:56:19;;;;;;;4.25;2.00;;;;;;;;;;4901194;29;20060;-77
2021/08/05 09:58:46;;;;;;;3.20;1.67;;;;;;;;;;4896821;29;20055;-76
2021/08/05 10:01:12;;;;;;;3.08;1.60;;;;;;;;;;4906361;29;20075;-75
2021/08/05 10:03:39;;;;;;;2.85;1.95;;;;;;;;;;4914438;29;20063;-75
2021/08/05 10:06:07;;;;;;;2.53;1.65;;;;;;;;;;4921021;29;20893;-75
2021/08/05 10:08:35;;;;;;;2.30;1.60;;;;;;;;;;4922365;29;20068;-74
2021/08/05 10:11:02;;;;;;;3.63;1.80;;;;;;;;;;4923292;29;20139;-75
2021/08/05 10:13:35;;;;;;;2.20;1.80;;;;;;;;;;4910860;29;20071;-76
2021/08/05 10:16:02;;;;;;;2.60;1.65;;;;;;;;;;4913700;29;20111;-76
2021/08/05 10:18:30;;;;;;;2.75;1.70;;;;;;;;;;4924049;29;20158;-77
2021/08/05 10:20:58;;;;;;;2.50;1.75;;;;;;;;;;4924340;29;20082;-76
2021/08/05 10:23:25;;;;;;;2.60;1.80;;;;;;;;;;4923865;29;20059;-76
2021/08/05 10:25:52;;;;;;;4.15;2.15;;;;;;;;;;4916857;29;20148;-75
2021/08/05 10:28:18;;;;;;;3.70;1.83;;;;;;;;;;4924609;29;20708;-75
2021/08/05 10:30:47;;;;;;;4.30;1.83;;;;;;;;;;4922076;29;20578;-75
2021/08/05 10:33:13;;;;;;;3.45;1.58;;;;;;;;;;4912297;29;20067;-75
2021/08/05 10:35:40;;;;;;;2.38;1.65;;;;;;;;;;4926605;29;20047;-75
2021/08/05 10:38:06;;;;;;;3.95;2.00;;;;;;;;;;4922937;29;20059;-74
2021/08/05 10:40:33;;;;;;;3.78;1.88;;;;;;;;;;4921409;29;20033;-75
2021/08/05 10:43:00;;;;;;;2.95;1.83;;;;;;;;;;4932721;29;20107;-76
2021/08/05 10:45:27;;;;;;;3.28;2.30;;;;;;;;;;4933697;29;20509;-76
2021/08/05 10:47:53;;;;;;;3.38;2.08;;;;;;;;;;4928751;29;20032;-76
2021/08/05 10:50:21;;;;;;;4.03;2.55;;;;;;;;;;4939455;29;20036;-75
2021/08/05 10:52:49;;;;;;;3.83;2.20;;;;;;;;;;4941055;29;20036;-76
2021/08/05 10:55:16;;;;;;;4.40;2.00;;;;;;;;;;4919204;29;20075;-75
2021/08/05 10:58:05;;;;;;;3.95;2.55;;;;;;;;;;4923843;29;20143;-75
2021/08/05 11:00:52;;;;;;;3.17;2.00;;;;;;;;;;4898344;29;20530;-75
2021/08/05 11:03:35;;;;;;;4.05;1.83;;;;;;;;;;4924753;29;20039;-75
2021/08/05 11:06:06;;;;;;;3.13;1.88;;;;;;;;;;4917690;29;20115;-76
2021/08/05 11:08:33;;;;;;;5.28;1.88;;;;;;;;;;4917140;29;20060;-76
2021/08/05 11:11:18;;;;;;;3.85;1.77;;;;;;;;;;4908175;29;20153;-77
2021/08/05 11:13:45;;;;;;;3.20;1.80;;;;;;;;;;4904678;29;20067;-77
2021/08/05 11:16:11;;;;;;;2.95;1.80;;;;;;;;;;4924799;29;20095;-76
2021/08/05 11:18:38;;;;;;;5.50;1.83;;;;;;;;;;4922577;29;20063;-77
2021/08/05 11:21:04;;;;;;;2.22;1.50;;;;;;;;;;4920892;29;20071;-76
2021/08/05 11:23:33;;;;;;;3.03;2.10;;;;;;;;;;4920295;29;20140;-77
2021/08/05 11:25:59;;;;;;;3.17;2.28;;;;;;;;;;4938295;29;20067;-75
2021/08/05 11:28:25;;;;;;;3.08;1.90;;;;;;;;;;4934838;29;20116;-77
2021/08/05 11:30:56;;;;;;;4.15;2.05;;;;;;;;;;4930421;29;20131;-77
2021/08/05 11:33:41;;;;;;;3.72;2.15;;;;;;;;;;4937323;29;20040;-76
2021/08/05 11:36:25;;;;;;;2.97;1.98;;;;;;;;;;4929390;29;20103;-76
2021/08/05 11:38:55;;;;;;;2.95;1.80;;;;;;;;;;4902923;29;20072;-76
2021/08/05 11:41:41;;;;;;;3.05;1.77;;;;;;;;;;4915782;29;20067;-74
2021/08/05 11:44:20;;;;;;;2.35;1.80;;;;;;;;;;4913872;29;20055;-76
2021/08/05 11:46:49;;;;;;;4.22;2.58;;;;;;;;;;4918016;29;20059;-76
2021/08/05 11:49:31;;;;;;;9.95;2.35;;;;;;;;;;4918015;29;20067;-74
2021/08/05 11:51:58;;;;;;;7.68;2.88;;;;;;;;;;4908714;29;21473;-76
2021/08/05 11:54:25;;;;;;;2.80;1.95;;;;;;;;;;4927665;29;20044;-78
2021/08/05 11:57:01;;;;;;;2.50;1.80;;;;;;;;;;4934285;29;20391;-75
2021/08/05 11:59:35;;;;;;;3.08;1.80;;;;;;;;;;4938238;29;20044;-75
2021/08/05 12:02:09;;;;;;;4.80;2.00;;;;;;;;;;4931383;29;20039;-74
2021/08/05 12:04:36;;;;;;;3.05;2.03;;;;;;;;;;4927567;29;20067;-77
2021/08/05 12:07:29;;;;;;;4.00;2.05;;;;;;;;;;4931800;29;20702;-75
2021/08/05 12:10:02;;;;;;;2.85;1.83;;;;;;;;;;4918525;29;20312;-74
2021/08/05 12:12:29;;;;;;;3.60;1.80;;;;;;;;;;4912310;29;20052;-76
2021/08/05 12:14:57;;;;;;;3.78;1.75;;;;;;;;;;4914757;29;20044;-76
2021/08/05 12:17:39;;;;;;;3.70;1.60;;;;;;;;;;4916326;29;20052;-76
2021/08/05 12:20:10;;;;;;;3.17;1.95;;;;;;;;;;4925209;29;20044;-75
2021/08/05 12:22:38;;;;;;;3.30;1.80;;;;;;;;;;4918069;29;20365;-75
2021/08/05 12:25:10;;;;;;;3.70;1.90;;;;;;;;;;4915162;29;20040;-74
2021/08/05 12:27:37;;;;;;;3.03;1.80;;;;;;;;;;4910589;29;20056;-74
2021/08/05 12:30:08;;;;;;;3.42;1.77;;;;;;;;;;4916365;29;20047;-76
2021/08/05 12:32:35;;;;;;;4.18;1.92;;;;;;;;;;4909509;29;20040;-75
2021/08/05 12:35:02;;;;;;;4.35;2.05;;;;;;;;;;4913370;29;20433;-75
2021/08/05 12:37:28;;;;;;;4.03;1.67;;;;;;;;;;4902028;29;20036;-76
2021/08/05 12:39:55;;;;;;;3.40;1.98;;;;;;;;;;4918439;29;20100;-76
2021/08/05 12:42:21;;;;;;;3.33;1.77;;;;;;;;;;4927818;29;20048;-76
2021/08/05 12:44:48;;;;;;;3.38;2.17;;;;;;;;;;4925684;29;20151;-77
2021/08/05 12:47:14;;;;;;;4.63;2.10;;;;;;;;;;4903668;29;20047;-76
2021/08/05 12:49:42;;;;;;;3.30;1.90;;;;;;;;;;4932558;29;20519;-77
2021/08/05 12:52:10;;;;;;;3.53;1.85;;;;;;;;;;4922560;29;20035;-75
2021/08/05 12:54:36;;;;;;;3.90;1.80;;;;;;;;;;4925943;29;20067;-75
2021/08/05 12:57:13;;;;;;;3.15;1.73;;;;;;;;;;4899079;29;20423;-76
2021/08/05 12:59:43;;;;;;;4.00;1.92;;;;;;;;;;4909801;29;20401;-75
2021/08/05 13:02:13;;;;;;;2.85;1.92;;;;;;;;;;4911535;29;20059;-74
2021/08/05 13:04:40;;;;;;;4.82;1.92;;;;;;;;;;4923153;29;20198;-74
2021/08/05 13:07:08;;;;;;;3.22;1.67;;;;;;;;;;4917011;29;20144;-75
2021/08/05 13:09:35;;;;;;;3.00;1.60;;;;;;;;;;4918927;29;20063;-75
2021/08/05 13:12:02;;;;;;;2.85;1.60;;;;;;;;;;4917522;29;20142;-76
2021/08/05 13:14:33;;;;;;;2.53;1.67;;;;;;;;;;4914203;29;20092;-75
2021/08/05 13:17:13;;;;;;;2.88;2.03;;;;;;;;;;4902657;29;20032;-75
2021/08/05 13:19:52;;;;;;;2.95;1.60;;;;;;;;;;4915488;29;20080;-76
2021/08/05 13:22:18;;;;;;;3.22;1.58;;;;;;;;;;4916499;29;20761;-75
2021/08/05 13:24:58;;;;;;;3.17;2.13;;;;;;;;;;4917919;29;20123;-75
2021/08/05 13:27:25;;;;;;;3.85;1.45;;;;;;;;;;4907895;29;20107;-76
2021/08/05 13:29:53;;;;;;;2.72;1.63;;;;;;;;;;4918482;29;20533;-76
2021/08/05 13:32:26;;;;;;;2.65;1.50;;;;;;;;;;4925422;29;20747;-76
2021/08/05 13:35:07;;;;;;;3.05;1.60;;;;;;;;;;4920548;29;20519;-76
2021/08/05 13:37:34;;;;;;;4.47;1.80;;;;;;;;;;4922434;29;20119;-75
2021/08/05 13:40:03;;;;;;;2.42;1.23;;;;;;;;;;4922514;29;20055;-77
2021/08/05 13:42:30;;;;;;;2.45;1.40;;;;;;;;;;4910742;29;20080;-76
2021/08/05 13:44:56;;;;;;;3.40;1.92;;;;;;;;;;4919663;29;20122;-75
2021/08/05 13:47:23;;;;;;;4.15;2.00;;;;;;;;;;4919460;29;20079;-75
2021/08/05 13:49:50;;;;;;;6.65;1.80;;;;;;;;;;4923050;29;20571;-75
2021/08/05 13:52:17;;;;;;;5.55;2.15;;;;;;;;;;4913964;29;20158;-75
2021/08/05 13:54:44;;;;;;;3.13;1.80;;;;;;;;;;4919003;29;20060;-75
2021/08/05 13:57:10;;;;;;;3.25;1.95;;;;;;;;;;4921714;29;20062;-74
2021/08/05 13:59:37;;;;;;;2.50;1.70;;;;;;;;;;4918779;29;20147;-76
2021/08/05 14:02:04;;;;;;;4.68;1.77;;;;;;;;;;4927824;29;20484;-75
2021/08/05 14:04:30;;;;;;;3.17;1.88;;;;;;;;;;4914281;29;20156;-74
2021/08/05 14:06:57;;;;;;;5.43;2.33;;;;;;;;;;4895816;29;20063;-77
2021/08/05 14:09:24;;;;;;;5.30;2.05;;;;;;;;;;4922561;29;20071;-77
2021/08/05 14:11:51;;;;;;;6.30;2.22;;;;;;;;;;4927088;29;20055;-76
2021/08/05 14:14:21;;;;;;;5.47;2.00;;;;;;;;;;4913178;29;20068;-76
2021/08/05 14:16:48;;;;;;;5.32;2.13;;;;;;;;;;4913449;29;20055;-74
2021/08/05 14:19:15;;;;;;;6.60;1.90;;;;;;;;;;4916923;29;20047;-75
2021/08/05 14:21:42;;;;;;;5.13;2.10;;;;;;;;;;4911734;29;20068;-74
2021/08/05 14:24:10;;;;;;;4.78;2.20;;;;;;;;;;4923511;29;20059;-74
2021/08/05 14:26:36;;;;;;;3.70;2.00;;;;;;;;;;4924738;29;20787;-72
2021/08/05 14:29:03;;;;;;;4.10;2.00;;;;;;;;;;4925197;29;20099;-72
2021/08/05 14:31:31;;;;;;;5.30;2.45;;;;;;;;;;4923797;29;20067;-72
2021/08/05 14:33:58;;;;;;;5.15;2.50;;;;;;;;;;4908370;29;20155;-74
2021/08/05 14:36:25;;;;;;;3.47;1.90;;;;;;;;;;4920195;29;21315;-73
2021/08/05 14:38:52;;;;;;;3.38;2.10;;;;;;;;;;4920748;29;20492;-73
2021/08/05 14:41:19;;;;;;;3.38;1.80;;;;;;;;;;4919393;29;20039;-73
2021/08/05 14:43:46;;;;;;;4.43;1.80;;;;;;;;;;4907269;29;20558;-73
2021/08/05 14:46:12;;;;;;;3.92;2.00;;;;;;;;;;4903847;29;20055;-74
2021/08/05 14:48:39;;;;;;;3.88;1.92;;;;;;;;;;4902124;29;20276;-75